Time;durP1;ratioP1;P1;durP2;ratioP2;P2;SDS_P1;SDS_P2;PMS_P1;PMS_P2;Temp;Humidity;BMP_temperature;BMP_pressure;BME280_temperature;BME280_humidity;BME280_pressure;Samples;Min_cycle;Max_cycle;Signal;HPM_P1;HPM_P2
2020/12/23 00:01:30;;;;;;;10.77;7.68;;;11.80;99.90;;;;;;4158771;28;20037;-70
2020/12/23 00:03:31;;;;;;;10.95;7.90;;;11.90;99.90;;;;;;4157274;28;20054;-71
2020/12/23 00:05:31;;;;;;;11.57;8.55;;;11.80;99.90;;;;;;4133310;28;20041;-71
2020/12/23 00:07:32;;;;;;;12.32;8.68;;;11.90;99.90;;;;;;4160244;28;20034;-71
2020/12/23 00:09:32;;;;;;;12.25;7.85;;;11.90;99.90;;;;;;4147291;28;20049;-71
2020/12/23 00:11:33;;;;;;;11.40;8.55;;;12.00;99.90;;;;;;4157598;28;20034;-71
2020/12/23 00:13:36;;;;;;;11.23;8.07;;;12.00;99.90;;;;;;4155184;28;20157;-71
2020/12/23 00:15:36;;;;;;;13.05;8.73;;;12.00;99.90;;;;;;4155543;28;20033;-71
2020/12/23 00:17:37;;;;;;;13.38;8.52;;;12.10;99.90;;;;;;4155154;28;20064;-71
2020/12/23 00:19:37;;;;;;;13.93;8.75;;;12.10;99.90;;;;;;4159642;28;20037;-71
2020/12/23 00:21:38;;;;;;;13.23;8.88;;;12.10;99.90;;;;;;4131052;28;20068;-71
2020/12/23 00:23:39;;;;;;;12.57;8.98;;;12.10;99.90;;;;;;4153642;28;20114;-71
2020/12/23 00:25:40;;;;;;;10.77;8.07;;;12.10;99.90;;;;;;4146955;28;20054;-71
2020/12/23 00:27:40;;;;;;;11.35;8.52;;;12.10;99.90;;;;;;4140885;28;20490;-71
2020/12/23 00:29:41;;;;;;;10.43;7.78;;;12.20;99.90;;;;;;4144723;28;20044;-71
2020/12/23 00:31:42;;;;;;;13.55;8.18;;;12.20;99.90;;;;;;4159236;28;20041;-71
2020/12/23 00:33:43;;;;;;;10.50;7.57;;;12.20;99.90;;;;;;4147886;28;20029;-71
2020/12/23 00:35:44;;;;;;;12.05;8.30;;;12.20;99.90;;;;;;4135860;28;20446;-71
2020/12/23 00:37:44;;;;;;;11.32;7.85;;;12.20;99.90;;;;;;4143597;28;20108;-71
2020/12/23 00:39:45;;;;;;;12.77;8.73;;;12.20;99.90;;;;;;4142065;28;20033;-71
2020/12/23 00:41:46;;;;;;;11.48;8.45;;;12.30;99.90;;;;;;4158959;28;20036;-71
2020/12/23 00:43:47;;;;;;;14.75;9.68;;;12.30;99.90;;;;;;4152624;28;20033;-71
2020/12/23 00:45:47;;;;;;;13.75;9.32;;;12.30;99.90;;;;;;4147026;28;20036;-70
2020/12/23 00:47:48;;;;;;;14.73;8.93;;;12.20;99.90;;;;;;4156544;28;20040;-71
2020/12/23 00:49:49;;;;;;;14.57;9.70;;;12.30;99.90;;;;;;4159648;28;20094;-71
2020/12/23 00:51:50;;;;;;;14.82;9.38;;;12.30;99.90;;;;;;4159075;28;20041;-71
2020/12/23 00:53:50;;;;;;;15.00;8.88;;;12.30;99.90;;;;;;4147353;28;20045;-70
2020/12/23 00:55:51;;;;;;;14.68;9.27;;;12.30;99.90;;;;;;4143585;28;20371;-71
2020/12/23 00:57:51;;;;;;;19.27;9.32;;;12.30;99.90;;;;;;4141729;28;20531;-71
2020/12/23 00:59:52;;;;;;;15.18;9.25;;;12.30;99.90;;;;;;4160729;28;20033;-71
2020/12/23 01:01:57;;;;;;;14.60;9.50;;;12.30;99.90;;;;;;4148323;28;20077;-71
2020/12/23 01:03:58;;;;;;;13.13;9.02;;;12.30;99.90;;;;;;4150728;28;20117;-71
2020/12/23 01:05:59;;;;;;;15.60;9.45;;;12.30;99.90;;;;;;4144353;28;20041;-71
2020/12/23 01:07:59;;;;;;;14.55;9.15;;;12.30;99.90;;;;;;4141405;28;20083;-71
2020/12/23 01:10:00;;;;;;;11.02;8.07;;;12.40;99.90;;;;;;4162448;28;20037;-70
2020/12/23 01:12:00;;;;;;;13.95;9.05;;;12.30;99.90;;;;;;4152975;28;20466;-71
2020/12/23 01:14:01;;;;;;;14.63;9.00;;;12.40;99.90;;;;;;4150320;28;20034;-71
2020/12/23 01:16:02;;;;;;;15.38;9.80;;;12.30;99.90;;;;;;4152860;28;20076;-71
2020/12/23 01:18:03;;;;;;;13.50;7.88;;;12.30;99.90;;;;;;4172461;28;20033;-71
2020/12/23 01:20:04;;;;;;;13.02;8.40;;;12.30;99.90;;;;;;4158334;28;20045;-71
2020/12/23 01:22:04;;;;;;;12.43;8.93;;;12.40;99.90;;;;;;4161889;28;20041;-71
2020/12/23 01:24:05;;;;;;;12.10;8.23;;;12.40;99.90;;;;;;4150427;28;20037;-71
2020/12/23 01:26:05;;;;;;;13.10;8.02;;;12.40;99.90;;;;;;4158100;28;20026;-71
2020/12/23 01:28:06;;;;;;;14.57;9.48;;;12.40;99.90;;;;;;4147714;28;20043;-71
2020/12/23 01:30:07;;;;;;;15.75;9.43;;;12.40;99.90;;;;;;4152661;28;20104;-71
2020/12/23 01:32:07;;;;;;;14.15;8.73;;;12.40;99.90;;;;;;4162032;28;20087;-71
2020/12/23 01:34:08;;;;;;;18.48;9.23;;;12.40;99.90;;;;;;4155584;28;20036;-71
2020/12/23 01:36:10;;;;;;;13.45;8.40;;;12.40;99.90;;;;;;4161496;28;20080;-71
2020/12/23 01:38:11;;;;;;;11.88;8.02;;;12.40;99.90;;;;;;4148844;28;20029;-71
2020/12/23 01:40:11;;;;;;;14.60;9.88;;;12.40;99.90;;;;;;4146342;28;20041;-71
2020/12/23 01:42:12;;;;;;;13.57;9.30;;;12.40;99.90;;;;;;4167987;28;20037;-71
2020/12/23 01:44:13;;;;;;;12.38;7.80;;;12.40;99.90;;;;;;4144886;28;20052;-71
2020/12/23 01:46:15;;;;;;;12.07;8.45;;;12.40;99.90;;;;;;4168564;28;20025;-71
2020/12/23 01:48:24;;;;;;;13.93;8.02;;;12.40;99.90;;;;;;4158614;28;20034;-71
2020/12/23 01:50:25;;;;;;;15.20;8.80;;;12.40;99.90;;;;;;4151530;28;20037;-71
2020/12/23 01:52:26;;;;;;;15.98;9.10;;;12.40;99.90;;;;;;4134253;28;20057;-71
2020/12/23 01:54:27;;;;;;;13.15;8.43;;;12.40;99.90;;;;;;4133377;28;20041;-71
2020/12/23 01:56:29;;;;;;;11.40;8.18;;;12.40;99.90;;;;;;4139645;28;20042;-71
2020/12/23 01:58:30;;;;;;;12.80;7.80;;;12.40;99.90;;;;;;4146288;28;20038;-71
2020/12/23 02:00:32;;;;;;;12.25;8.20;;;12.40;99.90;;;;;;4160434;28;20041;-71
2020/12/23 02:02:35;;;;;;;17.00;8.75;;;12.40;99.90;;;;;;4143967;28;21464;-71
2020/12/23 02:04:35;;;;;;;13.93;8.13;;;12.40;99.90;;;;;;4147975;28;20489;-71
2020/12/23 02:06:37;;;;;;;16.80;9.27;;;12.40;99.90;;;;;;4160140;28;20120;-71
2020/12/23 02:08:39;;;;;;;12.00;8.30;;;12.40;99.90;;;;;;4160238;28;20050;-71
2020/12/23 02:10:39;;;;;;;16.97;10.13;;;12.40;99.90;;;;;;4158534;28;20044;-71
2020/12/23 02:12:40;;;;;;;13.98;8.80;;;12.40;99.90;;;;;;4149944;28;20269;-71
2020/12/23 02:14:41;;;;;;;11.80;8.13;;;12.40;99.90;;;;;;4144978;28;20092;-71
2020/12/23 02:16:42;;;;;;;14.63;8.60;;;12.40;99.90;;;;;;4150438;28;20034;-71
2020/12/23 02:18:43;;;;;;;13.88;8.18;;;12.40;99.90;;;;;;4141283;28;20033;-71
2020/12/23 02:20:44;;;;;;;15.90;9.30;;;12.40;99.90;;;;;;4150791;28;20049;-71
2020/12/23 02:22:49;;;;;;;12.18;8.40;;;12.40;99.90;;;;;;4151158;28;20265;-71
2020/12/23 02:24:51;;;;;;;13.30;8.45;;;12.40;99.90;;;;;;4145887;28;20053;-71
2020/12/23 02:26:52;;;;;;;15.57;9.35;;;12.40;99.90;;;;;;4145424;28;20104;-71
2020/12/23 02:28:52;;;;;;;13.85;9.45;;;12.40;99.90;;;;;;4142943;28;20029;-71
2020/12/23 02:30:59;;;;;;;14.95;8.77;;;12.40;99.90;;;;;;4156568;28;20058;-71
2020/12/23 02:32:59;;;;;;;13.30;9.25;;;12.30;99.90;;;;;;4156039;28;20143;-71
2020/12/23 02:35:00;;;;;;;15.07;9.73;;;12.30;99.90;;;;;;4137904;28;20029;-71
2020/12/23 02:37:01;;;;;;;14.35;9.15;;;12.30;99.90;;;;;;4161220;28;20088;-71
2020/12/23 02:39:02;;;;;;;12.98;8.90;;;12.30;99.90;;;;;;4157896;28;20104;-71
2020/12/23 02:41:04;;;;;;;18.45;10.02;;;12.30;99.90;;;;;;4150443;28;20140;-71
2020/12/23 02:43:05;;;;;;;16.13;9.10;;;12.30;99.90;;;;;;4140854;28;20056;-71
2020/12/23 02:45:05;;;;;;;15.50;8.65;;;12.30;99.90;;;;;;4137161;28;20418;-71
2020/12/23 02:47:10;;;;;;;13.18;9.23;;;12.30;99.90;;;;;;4152838;28;20117;-71
2020/12/23 02:49:11;;;;;;;15.05;9.85;;;12.30;99.90;;;;;;4157441;28;20042;-71
2020/12/23 02:51:12;;;;;;;13.82;9.00;;;12.30;99.90;;;;;;4157481;28;20096;-71
2020/12/23 02:53:12;;;;;;;13.80;8.68;;;12.30;99.90;;;;;;4158002;28;20033;-71
2020/12/23 02:55:13;;;;;;;15.23;9.55;;;12.30;99.90;;;;;;4143774;28;20037;-71
2020/12/23 02:57:14;;;;;;;12.15;8.23;;;12.30;99.90;;;;;;4158032;28;20700;-71
2020/12/23 02:59:14;;;;;;;15.20;8.95;;;12.30;99.90;;;;;;4144616;28;20705;-71
2020/12/23 03:01:15;;;;;;;14.63;9.73;;;12.30;99.90;;;;;;4158896;28;20108;-71
2020/12/23 03:03:16;;;;;;;15.05;8.85;;;12.30;99.90;;;;;;4154522;28;20117;-71
2020/12/23 03:05:16;;;;;;;13.52;9.00;;;12.30;99.90;;;;;;4151778;28;20061;-71
2020/12/23 03:07:17;;;;;;;15.90;9.25;;;12.30;99.90;;;;;;4159896;28;20470;-71
2020/12/23 03:09:17;;;;;;;13.77;9.02;;;12.30;99.90;;;;;;4141632;28;20038;-71
2020/12/23 03:11:19;;;;;;;15.48;10.02;;;12.30;99.90;;;;;;4159564;28;20045;-71
2020/12/23 03:13:19;;;;;;;14.68;10.02;;;12.30;99.90;;;;;;4160804;28;20030;-71
2020/12/23 03:15:20;;;;;;;16.80;10.55;;;12.30;99.90;;;;;;4141083;28;20109;-71
2020/12/23 03:17:20;;;;;;;17.63;11.15;;;12.30;99.90;;;;;;4158767;28;20018;-71
2020/12/23 03:19:21;;;;;;;15.77;9.73;;;12.30;99.90;;;;;;4175063;28;20226;-71
2020/12/23 03:21:22;;;;;;;14.30;9.45;;;12.30;99.90;;;;;;4150889;28;20099;-71
2020/12/23 03:23:22;;;;;;;16.58;11.38;;;12.30;99.90;;;;;;4160214;28;20048;-71
2020/12/23 03:25:23;;;;;;;18.25;11.82;;;12.30;99.90;;;;;;4142087;28;20041;-71
2020/12/23 03:27:23;;;;;;;15.27;10.52;;;12.30;99.90;;;;;;4157200;28;20044;-70
2020/12/23 03:29:24;;;;;;;15.02;10.73;;;12.30;99.90;;;;;;4157944;28;20042;-71
2020/12/23 03:31:25;;;;;;;16.83;11.23;;;12.20;99.90;;;;;;4153185;28;20037;-70
2020/12/23 03:33:26;;;;;;;18.60;12.40;;;12.30;99.90;;;;;;4158997;28;20045;-70
2020/12/23 03:35:26;;;;;;;18.73;11.75;;;12.20;99.90;;;;;;4150704;28;20044;-70
2020/12/23 03:37:27;;;;;;;17.15;11.75;;;12.20;99.90;;;;;;4159131;28;20595;-70
2020/12/23 03:39:27;;;;;;;13.98;10.65;;;12.20;99.90;;;;;;4159083;28;20044;-70
2020/12/23 03:41:28;;;;;;;14.27;10.45;;;12.20;99.90;;;;;;4152190;28;20044;-71
2020/12/23 03:43:28;;;;;;;16.75;10.93;;;12.20;99.90;;;;;;4152610;28;20038;-71
2020/12/23 03:45:29;;;;;;;20.38;11.88;;;12.20;99.90;;;;;;4163233;28;20057;-71
2020/12/23 03:47:30;;;;;;;15.63;10.80;;;12.20;99.90;;;;;;4152538;28;20037;-71
2020/12/23 03:49:30;;;;;;;16.13;11.68;;;12.20;99.90;;;;;;4175329;28;20526;-71
2020/12/23 03:51:31;;;;;;;16.90;11.48;;;12.30;99.90;;;;;;4144141;28;20041;-71
2020/12/23 03:53:31;;;;;;;17.05;11.48;;;12.30;99.90;;;;;;4152718;28;20026;-71
2020/12/23 03:55:32;;;;;;;18.42;10.48;;;12.20;99.90;;;;;;4157532;28;20470;-71
2020/12/23 03:57:32;;;;;;;15.88;11.10;;;12.20;99.90;;;;;;4158048;28;20481;-71
2020/12/23 03:59:33;;;;;;;14.98;10.93;;;12.30;99.90;;;;;;4135486;28;20180;-70
2020/12/23 04:01:33;;;;;;;17.13;11.80;;;12.30;99.90;;;;;;4147745;28;20038;-70
2020/12/23 04:03:34;;;;;;;14.80;10.15;;;12.20;99.90;;;;;;4159809;28;20060;-70
2020/12/23 04:05:35;;;;;;;15.52;10.55;;;12.30;99.90;;;;;;4150753;28;20121;-71
2020/12/23 04:07:36;;;;;;;15.25;10.07;;;12.30;99.90;;;;;;4157578;28;20107;-70
2020/12/23 04:09:37;;;;;;;15.40;9.90;;;12.30;99.90;;;;;;4133300;28;20454;-70
2020/12/23 04:11:37;;;;;;;14.23;10.15;;;12.30;99.90;;;;;;4152898;28;20123;-70
2020/12/23 04:13:38;;;;;;;13.93;10.45;;;12.30;99.90;;;;;;4143119;28;20120;-70
2020/12/23 04:15:43;;;;;;;15.77;10.38;;;12.20;99.90;;;;;;4152454;28;20410;-70
2020/12/23 04:17:44;;;;;;;14.27;10.98;;;12.20;99.90;;;;;;4148571;28;20124;-70
2020/12/23 04:19:44;;;;;;;13.13;10.13;;;12.20;99.90;;;;;;4160253;28;20029;-70
2020/12/23 04:21:45;;;;;;;15.07;10.02;;;12.20;99.90;;;;;;4149817;28;20462;-70
2020/12/23 04:23:46;;;;;;;12.93;9.27;;;12.20;99.90;;;;;;4143043;28;20537;-70
2020/12/23 04:25:46;;;;;;;12.80;8.55;;;12.20;99.90;;;;;;4144704;28;20034;-70
2020/12/23 04:27:47;;;;;;;15.95;10.00;;;12.20;99.90;;;;;;4143265;28;20045;-70
2020/12/23 04:29:47;;;;;;;14.90;10.23;;;12.20;99.90;;;;;;4143340;28;20042;-70
2020/12/23 04:31:48;;;;;;;12.88;9.50;;;12.20;99.90;;;;;;4145786;28;20037;-70
2020/12/23 04:33:49;;;;;;;13.60;9.98;;;12.20;99.90;;;;;;4159081;28;20033;-70
2020/12/23 04:35:49;;;;;;;14.45;9.35;;;12.10;99.90;;;;;;4145292;28;20674;-70
2020/12/23 04:37:50;;;;;;;13.48;9.55;;;12.20;99.90;;;;;;4142464;28;20033;-70
2020/12/23 04:39:51;;;;;;;12.93;8.90;;;12.20;99.90;;;;;;4145893;28;20458;-70
2020/12/23 04:41:51;;;;;;;15.77;10.65;;;12.10;99.90;;;;;;4169029;28;20032;-70
2020/12/23 04:43:52;;;;;;;12.85;9.45;;;12.10;99.90;;;;;;4159409;28;20087;-70
2020/12/23 04:45:53;;;;;;;11.38;8.43;;;12.10;99.90;;;;;;4149553;28;20041;-70
2020/12/23 04:47:56;;;;;;;11.35;8.77;;;12.10;99.90;;;;;;4141703;28;20040;-70
2020/12/23 04:49:57;;;;;;;13.35;9.43;;;12.10;99.90;;;;;;4159548;28;20033;-70
2020/12/23 04:51:57;;;;;;;12.75;9.15;;;12.10;99.90;;;;;;4155008;28;20120;-70
2020/12/23 04:53:59;;;;;;;12.25;8.35;;;12.10;99.90;;;;;;4159484;28;20038;-70
2020/12/23 04:56:00;;;;;;;12.97;8.30;;;12.10;99.90;;;;;;4134178;28;20030;-70
2020/12/23 04:58:02;;;;;;;9.85;7.95;;;12.10;99.90;;;;;;4147325;28;20036;-70
2020/12/23 05:00:06;;;;;;;10.35;8.43;;;12.10;99.90;;;;;;4135381;28;20049;-70
2020/12/23 05:02:08;;;;;;;12.13;7.95;;;12.10;99.90;;;;;;4138383;28;20025;-70
2020/12/23 05:04:09;;;;;;;;;;;12.10;99.90;;;;;;4160166;28;20033;-70
2020/12/23 05:06:10;;;;;;;10.32;7.78;;;12.10;99.90;;;;;;4144897;28;19920;-70
2020/12/23 05:08:11;;;;;;;9.32;7.32;;;12.10;99.90;;;;;;4141764;28;20099;-70
2020/12/23 05:10:11;;;;;;;8.75;7.05;;;12.10;99.90;;;;;;4152086;28;20053;-70
2020/12/23 05:12:12;;;;;;;11.63;8.60;;;12.10;99.90;;;;;;4146036;28;20033;-70
2020/12/23 05:14:12;;;;;;;10.88;8.30;;;12.10;99.90;;;;;;4156835;28;20036;-70
2020/12/23 05:16:22;;;;;;;8.93;7.32;;;12.10;99.90;;;;;;4156458;28;20151;-70
2020/12/23 05:18:33;;;;;;;9.05;6.75;;;12.10;99.90;;;;;;4141871;28;20041;-70
2020/12/23 05:20:33;;;;;;;8.50;6.00;;;12.20;99.90;;;;;;4148049;28;20036;-70
2020/12/23 05:22:44;;;;;;;10.30;6.65;;;12.20;99.90;;;;;;4131436;28;20559;-70
2020/12/23 05:24:53;;;;;;;6.95;5.70;;;12.20;99.90;;;;;;4151426;28;20729;-70
2020/12/23 05:26:56;;;;;;;9.57;5.30;;;12.20;99.90;;;;;;4138537;28;20064;-71
2020/12/23 05:28:58;;;;;;;8.20;5.68;;;12.20;99.90;;;;;;4155473;28;20039;-70
2020/12/23 05:31:02;;;;;;;7.20;5.68;;;12.20;99.90;;;;;;4142611;28;20092;-70
2020/12/23 05:33:04;;;;;;;7.70;5.57;;;12.20;99.90;;;;;;4136550;28;20046;-70
2020/12/23 05:35:06;;;;;;;7.53;5.83;;;12.20;99.90;;;;;;4136727;28;20062;-70
2020/12/23 05:37:06;;;;;;;8.82;5.75;;;12.20;99.90;;;;;;4130015;28;20038;-71
2020/12/23 05:39:08;;;;;;;8.23;5.97;;;12.20;99.90;;;;;;4136546;28;20501;-70
2020/12/23 05:41:14;;;;;;;9.77;6.60;;;12.20;99.90;;;;;;4128607;28;20043;-70
2020/12/23 05:43:15;;;;;;;7.60;5.70;;;12.20;99.90;;;;;;4131327;28;20057;-70
2020/12/23 05:45:16;;;;;;;10.27;6.35;;;12.20;99.90;;;;;;4131340;28;20038;-70
2020/12/23 05:47:24;;;;;;;9.35;6.18;;;12.20;99.90;;;;;;4139818;28;20034;-70
2020/12/23 05:49:25;;;;;;;7.53;5.88;;;12.20;99.90;;;;;;4132860;28;20041;-70
2020/12/23 05:51:27;;;;;;;9.50;6.05;;;12.20;99.90;;;;;;4130969;28;20046;-71
2020/12/23 05:53:29;;;;;;;6.40;5.05;;;12.20;99.90;;;;;;4140201;28;20493;-70
2020/12/23 05:55:30;;;;;;;8.10;5.18;;;12.10;99.90;;;;;;4137561;28;20042;-71
2020/12/23 05:57:35;;;;;;;8.25;5.20;;;12.10;99.90;;;;;;4139868;28;20045;-70
2020/12/23 05:59:36;;;;;;;11.27;4.93;;;12.20;99.90;;;;;;4136796;28;20038;-70
2020/12/23 06:01:38;;;;;;;7.88;4.60;;;12.20;99.90;;;;;;4131899;28;20038;-71
2020/12/23 06:03:56;;;;;;;6.80;4.63;;;12.10;99.90;;;;;;4133238;28;20034;-71
2020/12/23 06:06:01;;;;;;;7.10;4.38;;;12.20;99.90;;;;;;4135446;28;20033;-71
2020/12/23 06:08:03;;;;;;;7.32;4.75;;;12.20;99.90;;;;;;4142403;28;20034;-71
2020/12/23 06:10:06;;;;;;;8.52;5.03;;;12.20;99.90;;;;;;4128379;28;20410;-70
2020/12/23 06:12:16;;;;;;;8.60;5.45;;;12.20;99.90;;;;;;4129115;28;20030;-71
2020/12/23 06:14:24;;;;;;;6.82;4.70;;;12.20;99.90;;;;;;4131946;28;20049;-71
2020/12/23 06:16:31;;;;;;;9.35;5.70;;;12.20;99.90;;;;;;4144880;28;20474;-71
2020/12/23 06:18:36;;;;;;;5.80;4.40;;;12.20;99.90;;;;;;4139236;28;20054;-71
2020/12/23 06:20:41;;;;;;;8.65;4.95;;;12.20;99.90;;;;;;4136840;28;20037;-71
2020/12/23 06:22:46;;;;;;;6.93;4.65;;;12.20;99.90;;;;;;4128517;28;20498;-71
2020/12/23 06:24:46;;;;;;;8.82;5.22;;;12.20;99.90;;;;;;4135394;28;20041;-71
2020/12/23 06:26:49;;;;;;;8.82;5.93;;;12.20;99.90;;;;;;4135486;28;20493;-71
2020/12/23 06:28:56;;;;;;;5.78;4.38;;;12.20;99.90;;;;;;4137687;28;20095;-70
2020/12/23 06:31:00;;;;;;;8.52;5.47;;;12.20;99.90;;;;;;4142015;28;20045;-71
2020/12/23 06:33:02;;;;;;;6.47;4.68;;;12.20;99.90;;;;;;4141671;28;20054;-71
2020/12/23 06:35:04;;;;;;;6.65;4.75;;;12.10;99.90;;;;;;4140049;28;20034;-71
2020/12/23 06:37:25;;;;;;;7.40;4.55;;;12.20;99.90;;;;;;4088985;28;20608;-71
2020/12/23 06:39:40;;;;;;;6.28;4.78;;;12.20;99.90;;;;;;4139758;28;20033;-71
2020/12/23 06:41:41;;;;;;;6.57;4.65;;;12.20;99.90;;;;;;4136302;28;20037;-71
2020/12/23 06:43:53;;;;;;;6.45;4.25;;;12.20;99.90;;;;;;4142372;28;20033;-70
2020/12/23 06:45:54;;;;;;;7.05;4.88;;;12.20;99.90;;;;;;4139779;28;20465;-71
2020/12/23 06:48:13;;;;;;;10.20;5.10;;;12.20;99.90;;;;;;4158426;28;20033;-71
2020/12/23 06:50:18;;;;;;;8.35;4.97;;;12.20;99.90;;;;;;4134064;28;20042;-71
2020/12/23 06:52:21;;;;;;;7.35;5.28;;;12.20;99.90;;;;;;4125264;28;20937;-71
2020/12/23 06:54:50;;;;;;;7.10;4.90;;;12.20;99.90;;;;;;4142361;28;20205;-71
2020/12/23 06:56:50;;;;;;;6.85;4.78;;;12.20;99.90;;;;;;4139910;28;20740;-71
2020/12/23 06:58:51;;;;;;;7.82;5.43;;;12.20;99.90;;;;;;4145462;28;20038;-71
2020/12/23 07:00:51;;;;;;;6.30;4.60;;;12.20;99.90;;;;;;4138579;28;20089;-71
2020/12/23 07:03:06;;;;;;;8.57;4.95;;;12.30;99.90;;;;;;4140942;28;20030;-71
2020/12/23 07:05:08;;;;;;;11.18;4.80;;;12.20;99.90;;;;;;4139872;28;20048;-71
2020/12/23 07:07:33;;;;;;;6.90;5.10;;;12.30;99.90;;;;;;4143207;28;20126;-71
2020/12/23 07:09:35;;;;;;;6.25;4.45;;;12.30;99.90;;;;;;4139130;28;20042;-71
2020/12/23 07:11:37;;;;;;;6.20;4.35;;;12.20;99.90;;;;;;4154008;28;20065;-71
2020/12/23 07:13:38;;;;;;;5.20;3.83;;;12.20;99.90;;;;;;4136664;28;20037;-71
2020/12/23 07:15:49;;;;;;;5.50;4.40;;;12.20;99.90;;;;;;4140433;28;20422;-71
2020/12/23 07:17:56;;;;;;;5.60;4.30;;;12.20;99.90;;;;;;4141787;28;20323;-71
2020/12/23 07:19:58;;;;;;;5.50;3.92;;;12.20;99.90;;;;;;4139806;28;20049;-71
2020/12/23 07:21:59;;;;;;;6.38;4.15;;;12.20;99.90;;;;;;4139745;28;20038;-70
2020/12/23 07:24:00;;;;;;;5.47;3.75;;;12.20;99.90;;;;;;4133602;28;20509;-71
2020/12/23 07:26:05;;;;;;;4.13;3.53;;;12.30;99.90;;;;;;4138200;28;20125;-71
2020/12/23 07:28:08;;;;;;;4.90;3.33;;;12.30;99.90;;;;;;4141149;28;20058;-71
2020/12/23 07:30:09;;;;;;;4.88;3.65;;;12.30;99.90;;;;;;4129880;28;20036;-71
2020/12/23 07:32:11;;;;;;;4.05;3.10;;;12.30;99.90;;;;;;4154254;28;20523;-71
2020/12/23 07:34:12;;;;;;;5.43;3.63;;;12.30;99.90;;;;;;4138740;28;20481;-71
2020/12/23 07:36:13;;;;;;;5.03;3.47;;;12.30;99.90;;;;;;4140833;28;20037;-71
2020/12/23 07:38:14;;;;;;;5.90;3.63;;;12.30;99.90;;;;;;4140953;28;20030;-71
2020/12/23 07:40:16;;;;;;;8.60;3.45;;;12.30;99.90;;;;;;4135433;28;20045;-71
2020/12/23 07:42:20;;;;;;;4.70;2.85;;;12.30;99.90;;;;;;4136414;28;20038;-71
2020/12/23 07:44:22;;;;;;;4.40;3.45;;;12.30;99.90;;;;;;4140689;28;20046;-70
2020/12/23 07:46:23;;;;;;;4.82;3.28;;;12.30;99.90;;;;;;4135729;28;20080;-71
2020/12/23 07:48:25;;;;;;;5.40;3.15;;;12.30;99.90;;;;;;4138199;28;20120;-71
2020/12/23 07:50:29;;;;;;;5.97;3.17;;;12.30;99.90;;;;;;4137047;28;20675;-71
2020/12/23 07:52:31;;;;;;;4.30;2.80;;;12.30;99.90;;;;;;4133943;28;20054;-71
2020/12/23 07:54:31;;;;;;;3.42;2.65;;;12.30;99.90;;;;;;4148192;28;20029;-71
2020/12/23 07:56:38;;;;;;;4.50;3.10;;;12.30;99.90;;;;;;4134848;28;20494;-71
2020/12/23 07:58:43;;;;;;;4.28;3.20;;;12.30;99.90;;;;;;4137671;28;20125;-71
2020/12/23 08:00:44;;;;;;;5.68;4.03;;;12.30;99.90;;;;;;4139427;28;20501;-71
2020/12/23 08:02:45;;;;;;;7.63;3.67;;;12.30;99.90;;;;;;4143191;28;20087;-72
2020/12/23 08:04:46;;;;;;;6.50;4.03;;;12.30;99.90;;;;;;4144409;28;20773;-72
2020/12/23 08:06:46;;;;;;;6.13;3.67;;;12.30;99.90;;;;;;4148394;28;20033;-73
2020/12/23 08:08:47;;;;;;;4.65;3.47;;;12.30;99.90;;;;;;4128080;28;20037;-73
2020/12/23 08:10:47;;;;;;;6.82;3.65;;;12.30;99.90;;;;;;4139151;28;20432;-70
2020/12/23 08:13:03;;;;;;;3.67;3.08;;;12.30;99.90;;;;;;4152857;28;20025;-71
2020/12/23 08:15:09;;;;;;;4.13;2.92;;;12.30;99.90;;;;;;4133732;28;20121;-71
2020/12/23 08:17:10;;;;;;;4.10;2.63;;;12.30;99.90;;;;;;4136407;28;20062;-71
2020/12/23 08:19:16;;;;;;;3.80;2.53;;;12.30;99.90;;;;;;4141267;28;20033;-71
2020/12/23 08:21:17;;;;;;;3.92;2.60;;;12.30;99.90;;;;;;4136278;28;20083;-71
2020/12/23 08:23:18;;;;;;;2.25;1.77;;;12.30;99.90;;;;;;4137566;28;20034;-71
2020/12/23 08:25:20;;;;;;;5.43;2.95;;;12.30;99.90;;;;;;4143610;28;20040;-71
2020/12/23 08:27:20;;;;;;;5.05;2.80;;;12.30;99.90;;;;;;4143931;28;20482;-71
2020/12/23 08:29:21;;;;;;;7.78;2.90;;;12.30;99.90;;;;;;4145070;28;20075;-71
2020/12/23 08:31:30;;;;;;;2.78;2.10;;;12.30;99.90;;;;;;4135762;28;20642;-72
2020/12/23 08:33:33;;;;;;;4.38;2.28;;;12.30;99.90;;;;;;4143229;28;20410;-72
2020/12/23 08:35:44;;;;;;;3.65;2.15;;;12.30;99.90;;;;;;4144979;28;20030;-71
2020/12/23 08:37:44;;;;;;;2.45;2.00;;;12.30;99.90;;;;;;4146987;28;20033;-71
2020/12/23 08:39:52;;;;;;;2.15;1.80;;;12.30;99.90;;;;;;4153265;28;20034;-71
2020/12/23 08:41:53;;;;;;;3.15;2.13;;;12.30;99.90;;;;;;4141899;28;20049;-71
2020/12/23 08:43:54;;;;;;;3.78;2.30;;;12.30;99.90;;;;;;4124827;28;20120;-71
2020/12/23 08:45:58;;;;;;;3.97;2.40;;;12.30;99.90;;;;;;4156859;28;20041;-71
2020/12/23 08:47:58;;;;;;;2.78;2.25;;;12.40;99.90;;;;;;4140274;28;20055;-71
2020/12/23 08:50:00;;;;;;;4.13;2.35;;;12.30;99.90;;;;;;4146048;28;20038;-71
2020/12/23 08:52:01;;;;;;;4.20;2.20;;;12.40;99.90;;;;;;4141668;28;20042;-71
2020/12/23 08:54:14;;;;;;;2.90;1.83;;;12.40;99.90;;;;;;4141018;28;20057;-71
2020/12/23 08:56:29;;;;;;;2.35;1.98;;;12.40;99.90;;;;;;4142326;28;20319;-71
2020/12/23 08:58:31;;;;;;;3.55;2.08;;;12.50;99.90;;;;;;4129538;28;20039;-71
2020/12/23 09:00:32;;;;;;;2.88;2.05;;;12.40;99.90;;;;;;4156601;28;20092;-71
2020/12/23 09:02:36;;;;;;;4.60;2.50;;;12.40;99.90;;;;;;4160001;28;20033;-71
2020/12/23 09:04:37;;;;;;;3.78;1.92;;;12.40;99.90;;;;;;4132546;28;20042;-72
2020/12/23 09:06:40;;;;;;;3.88;2.25;;;12.40;99.90;;;;;;4140498;28;20100;-72
2020/12/23 09:08:40;;;;;;;;;;;12.50;99.90;;;;;;4141167;28;20037;-71
2020/12/23 09:10:55;;;;;;;2.83;2.00;;;12.40;99.90;;;;;;4148930;28;20265;-72
2020/12/23 09:13:09;;;;;;;3.22;1.70;;;12.40;99.90;;;;;;4136746;28;20033;-71
2020/12/23 09:15:14;;;;;;;2.90;2.20;;;12.40;99.90;;;;;;4140393;28;20268;-71
2020/12/23 09:17:24;;;;;;;3.88;1.90;;;12.40;99.90;;;;;;4133840;28;20168;-71
2020/12/23 09:19:41;;;;;;;3.55;1.98;;;12.40;99.90;;;;;;4134997;28;20043;-71
2020/12/23 09:21:41;;;;;;;4.22;2.30;;;12.40;99.90;;;;;;4141251;28;20034;-71
2020/12/23 09:23:42;;;;;;;3.47;2.03;;;12.40;99.90;;;;;;4132987;28;20070;-71
2020/12/23 09:25:44;;;;;;;5.07;1.95;;;12.40;99.90;;;;;;4136523;28;20045;-72
2020/12/23 09:27:54;;;;;;;2.05;1.60;;;12.40;99.90;;;;;;4148820;28;20101;-71
2020/12/23 09:29:55;;;;;;;2.35;1.70;;;12.40;99.90;;;;;;4135091;28;20038;-71
2020/12/23 09:31:55;;;;;;;4.18;1.98;;;12.40;99.90;;;;;;4135767;28;20083;-71
2020/12/23 09:33:56;;;;;;;3.38;1.85;;;12.40;99.90;;;;;;4139019;28;20030;-71
2020/12/23 09:36:05;;;;;;;3.22;1.88;;;12.40;99.90;;;;;;4134856;28;20042;-71
2020/12/23 09:38:35;;;;;;;3.25;1.33;;;12.40;99.90;;;;;;4137531;28;20534;-71
2020/12/23 09:40:44;;;;;;;2.58;1.65;;;12.50;99.90;;;;;;4125655;28;20410;-71
2020/12/23 09:42:45;;;;;;;4.20;1.60;;;12.40;99.90;;;;;;4119481;28;20453;-71
2020/12/23 09:44:45;;;;;;;3.33;1.73;;;12.50;99.90;;;;;;4137646;28;20129;-71
2020/12/23 09:46:49;;;;;;;5.78;2.53;;;12.50;99.90;;;;;;4134740;28;20037;-71
2020/12/23 09:48:49;;;;;;;3.38;2.13;;;12.50;99.90;;;;;;4133108;28;20622;-71
2020/12/23 09:50:53;;;;;;;7.50;2.67;;;12.50;99.90;;;;;;4137039;28;20097;-71
2020/12/23 09:52:54;;;;;;;5.97;2.47;;;12.50;99.90;;;;;;4149596;28;20029;-71
2020/12/23 09:54:54;;;;;;;3.95;2.25;;;12.50;99.90;;;;;;4136642;28;20069;-71
2020/12/23 09:56:55;;;;;;;4.10;2.63;;;12.50;99.90;;;;;;4136909;28;20057;-71
2020/12/23 09:58:56;;;;;;;4.45;2.00;;;12.50;99.90;;;;;;4136133;28;20034;-71
2020/12/23 10:00:56;;;;;;;3.33;2.10;;;12.50;99.90;;;;;;4132074;28;20057;-71
2020/12/23 10:02:57;;;;;;;4.72;2.08;;;12.50;99.90;;;;;;4139098;28;20041;-71
2020/12/23 10:04:58;;;;;;;4.60;1.75;;;12.50;99.90;;;;;;4116470;28;20031;-71
2020/12/23 10:06:59;;;;;;;2.10;1.67;;;12.50;99.90;;;;;;4140549;28;20041;-71
2020/12/23 10:09:00;;;;;;;2.45;1.75;;;12.50;99.90;;;;;;4136739;28;20147;-71
2020/12/23 10:11:01;;;;;;;3.08;2.05;;;12.50;99.90;;;;;;4131896;28;20045;-71
2020/12/23 10:13:03;;;;;;;4.65;2.25;;;12.50;99.90;;;;;;4139952;28;20466;-71
2020/12/23 10:15:06;;;;;;;2.42;1.95;;;12.60;99.90;;;;;;4137950;28;20165;-71
2020/12/23 10:17:06;;;;;;;2.75;2.25;;;12.50;99.90;;;;;;4135384;28;20034;-71
2020/12/23 10:19:07;;;;;;;2.38;1.90;;;12.60;99.90;;;;;;4139852;28;20037;-71
2020/12/23 10:21:09;;;;;;;3.85;2.00;;;12.60;99.90;;;;;;4137522;28;20026;-72
2020/12/23 10:23:09;;;;;;;4.03;2.35;;;12.60;99.90;;;;;;4138596;28;20030;-71
2020/12/23 10:25:10;;;;;;;4.25;2.38;;;12.60;99.90;;;;;;4141871;28;20034;-71
2020/12/23 10:27:11;;;;;;;2.13;1.42;;;12.60;99.90;;;;;;4139996;28;20037;-72
2020/12/23 10:29:11;;;;;;;4.20;2.00;;;12.60;99.90;;;;;;4137149;28;20033;-71
2020/12/23 10:31:13;;;;;;;3.45;1.60;;;12.70;99.90;;;;;;4132911;28;20118;-71
2020/12/23 10:33:13;;;;;;;2.67;1.58;;;12.70;99.90;;;;;;4136114;28;20037;-71